Terminal Aerodrome Forecast
Issued by NWS

Home | Current Version | Previous Version | Text Only | Print | Product List | Glossary On
Versions: 1 2 3 4 5 6 7 8 9 10 11 12 13 14 15 16 17 18 19 20
844
FTUS46 KLOX 290706 AAA
TAFSBP
TAF AMD
KSBP 290706Z 2907/3006 VRB03KT P6SM FEW015
     FM291000 31005KT P6SM OVC012
     FM291900 31010KT P6SM SCT250
     FM292100 31015G23KT P6SM SCT250
     FM300200 31008KT P6SM OVC012=

USA.gov is the U.S. government's official web portal to all federal, state and local government web resources and services.